sensor_id;sensor_type;location;lat;lon;timestamp;P1;durP1;ratioP1;P2;durP2;ratioP2
46835;SDS011;32573;51.290;6.926;2024-02-21T00:01:03;6.60;;;2.80;;
46835;SDS011;32573;51.290;6.926;2024-02-21T00:03:33;8.27;;;2.95;;
46835;SDS011;32573;51.290;6.926;2024-02-21T00:06:02;7.65;;;2.92;;
46835;SDS011;32573;51.290;6.926;2024-02-21T00:08:30;6.10;;;2.58;;
46835;SDS011;32573;51.290;6.926;2024-02-21T00:10:59;6.93;;;2.75;;
46835;SDS011;32573;51.290;6.926;2024-02-21T00:13:27;7.32;;;3.10;;
46835;SDS011;32573;51.290;6.926;2024-02-21T00:15:56;5.93;;;2.40;;
46835;SDS011;32573;51.290;6.926;2024-02-21T00:18:24;6.10;;;2.78;;
46835;SDS011;32573;51.290;6.926;2024-02-21T00:20:57;7.25;;;3.30;;
46835;SDS011;32573;51.290;6.926;2024-02-21T00:23:28;7.15;;;2.63;;
46835;SDS011;32573;51.290;6.926;2024-02-21T00:25:56;5.80;;;2.63;;
46835;SDS011;32573;51.290;6.926;2024-02-21T00:28:25;8.85;;;3.10;;
46835;SDS011;32573;51.290;6.926;2024-02-21T00:30:55;6.90;;;2.60;;
46835;SDS011;32573;51.290;6.926;2024-02-21T00:33:23;6.95;;;2.90;;
46835;SDS011;32573;51.290;6.926;2024-02-21T00:35:52;6.55;;;2.50;;
46835;SDS011;32573;51.290;6.926;2024-02-21T00:38:22;6.55;;;2.58;;
46835;SDS011;32573;51.290;6.926;2024-02-21T00:40:50;8.32;;;2.70;;
46835;SDS011;32573;51.290;6.926;2024-02-21T00:43:19;6.15;;;2.63;;
46835;SDS011;32573;51.290;6.926;2024-02-21T00:45:50;6.07;;;2.53;;
46835;SDS011;32573;51.290;6.926;2024-02-21T00:48:18;8.55;;;3.13;;
46835;SDS011;32573;51.290;6.926;2024-02-21T00:50:47;6.32;;;2.83;;
46835;SDS011;32573;51.290;6.926;2024-02-21T00:53:15;7.95;;;3.00;;
46835;SDS011;32573;51.290;6.926;2024-02-21T00:55:45;7.93;;;3.10;;
46835;SDS011;32573;51.290;6.926;2024-02-21T00:58:14;10.05;;;3.58;;
46835;SDS011;32573;51.290;6.926;2024-02-21T01:00:42;7.35;;;2.88;;
46835;SDS011;32573;51.290;6.926;2024-02-21T01:03:10;7.35;;;3.30;;
46835;SDS011;32573;51.290;6.926;2024-02-21T01:05:39;7.20;;;2.75;;
46835;SDS011;32573;51.290;6.926;2024-02-21T01:08:07;6.32;;;2.83;;
46835;SDS011;32573;51.290;6.926;2024-02-21T01:10:35;6.22;;;2.72;;
46835;SDS011;32573;51.290;6.926;2024-02-21T01:13:05;6.60;;;2.80;;
46835;SDS011;32573;51.290;6.926;2024-02-21T01:15:34;8.93;;;2.80;;
46835;SDS011;32573;51.290;6.926;2024-02-21T01:18:03;6.00;;;3.22;;
46835;SDS011;32573;51.290;6.926;2024-02-21T01:20:32;5.65;;;2.70;;
46835;SDS011;32573;51.290;6.926;2024-02-21T01:23:00;9.07;;;2.78;;
46835;SDS011;32573;51.290;6.926;2024-02-21T01:25:29;5.90;;;2.50;;
46835;SDS011;32573;51.290;6.926;2024-02-21T01:27:58;6.90;;;2.40;;
46835;SDS011;32573;51.290;6.926;2024-02-21T01:30:28;7.68;;;2.70;;
46835;SDS011;32573;51.290;6.926;2024-02-21T01:32:56;6.68;;;2.45;;
46835;SDS011;32573;51.290;6.926;2024-02-21T01:35:24;5.45;;;2.60;;
46835;SDS011;32573;51.290;6.926;2024-02-21T01:37:53;6.18;;;2.67;;
46835;SDS011;32573;51.290;6.926;2024-02-21T01:40:21;6.40;;;2.65;;
46835;SDS011;32573;51.290;6.926;2024-02-21T01:42:55;6.18;;;2.50;;
46835;SDS011;32573;51.290;6.926;2024-02-21T01:45:23;7.28;;;2.90;;
46835;SDS011;32573;51.290;6.926;2024-02-21T01:47:53;5.55;;;2.30;;
46835;SDS011;32573;51.290;6.926;2024-02-21T01:50:21;6.68;;;2.60;;
46835;SDS011;32573;51.290;6.926;2024-02-21T01:52:51;7.13;;;2.58;;
46835;SDS011;32573;51.290;6.926;2024-02-21T01:55:20;5.68;;;2.22;;
46835;SDS011;32573;51.290;6.926;2024-02-21T01:57:49;6.30;;;2.70;;
46835;SDS011;32573;51.290;6.926;2024-02-21T02:00:17;7.07;;;2.90;;
46835;SDS011;32573;51.290;6.926;2024-02-21T02:02:47;6.38;;;2.45;;
46835;SDS011;32573;51.290;6.926;2024-02-21T02:05:17;5.75;;;2.33;;
46835;SDS011;32573;51.290;6.926;2024-02-21T02:07:48;5.93;;;2.40;;
46835;SDS011;32573;51.290;6.926;2024-02-21T02:10:16;7.07;;;3.00;;
46835;SDS011;32573;51.290;6.926;2024-02-21T02:12:45;7.95;;;2.60;;
46835;SDS011;32573;51.290;6.926;2024-02-21T02:15:13;6.55;;;2.85;;
46835;SDS011;32573;51.290;6.926;2024-02-21T02:17:41;5.60;;;3.08;;
46835;SDS011;32573;51.290;6.926;2024-02-21T02:20:10;7.40;;;2.70;;
46835;SDS011;32573;51.290;6.926;2024-02-21T02:22:41;7.03;;;2.88;;
46835;SDS011;32573;51.290;6.926;2024-02-21T02:25:12;5.35;;;2.50;;
46835;SDS011;32573;51.290;6.926;2024-02-21T02:27:41;7.40;;;2.83;;
46835;SDS011;32573;51.290;6.926;2024-02-21T02:30:12;6.47;;;2.72;;
46835;SDS011;32573;51.290;6.926;2024-02-21T02:32:43;6.32;;;2.58;;
46835;SDS011;32573;51.290;6.926;2024-02-21T02:35:12;5.32;;;2.60;;
46835;SDS011;32573;51.290;6.926;2024-02-21T02:37:47;4.97;;;2.35;;
46835;SDS011;32573;51.290;6.926;2024-02-21T02:40:17;4.90;;;2.33;;
46835;SDS011;32573;51.290;6.926;2024-02-21T02:42:46;6.60;;;2.60;;
46835;SDS011;32573;51.290;6.926;2024-02-21T02:45:15;6.22;;;2.70;;
46835;SDS011;32573;51.290;6.926;2024-02-21T02:47:44;7.22;;;2.70;;
46835;SDS011;32573;51.290;6.926;2024-02-21T02:50:13;7.75;;;2.55;;
46835;SDS011;32573;51.290;6.926;2024-02-21T02:52:42;6.55;;;2.10;;
46835;SDS011;32573;51.290;6.926;2024-02-21T02:55:10;5.97;;;2.28;;
46835;SDS011;32573;51.290;6.926;2024-02-21T02:57:40;7.30;;;2.20;;
46835;SDS011;32573;51.290;6.926;2024-02-21T03:00:10;5.03;;;2.42;;
46835;SDS011;32573;51.290;6.926;2024-02-21T03:02:40;4.93;;;2.35;;
46835;SDS011;32573;51.290;6.926;2024-02-21T03:05:11;8.68;;;2.70;;
46835;SDS011;32573;51.290;6.926;2024-02-21T03:07:41;5.57;;;2.30;;
46835;SDS011;32573;51.290;6.926;2024-02-21T03:10:10;4.75;;;2.50;;
46835;SDS011;32573;51.290;6.926;2024-02-21T03:12:40;5.63;;;2.10;;
46835;SDS011;32573;51.290;6.926;2024-02-21T03:15:09;6.38;;;2.35;;
46835;SDS011;32573;51.290;6.926;2024-02-21T03:17:38;7.25;;;2.95;;
46835;SDS011;32573;51.290;6.926;2024-02-21T03:20:07;6.07;;;2.35;;
46835;SDS011;32573;51.290;6.926;2024-02-21T03:22:39;5.53;;;2.50;;
46835;SDS011;32573;51.290;6.926;2024-02-21T03:25:08;8.13;;;2.22;;
46835;SDS011;32573;51.290;6.926;2024-02-21T03:27:37;5.00;;;2.10;;
46835;SDS011;32573;51.290;6.926;2024-02-21T03:30:07;6.78;;;2.60;;
46835;SDS011;32573;51.290;6.926;2024-02-21T03:32:36;6.47;;;2.45;;
46835;SDS011;32573;51.290;6.926;2024-02-21T03:35:06;8.07;;;2.33;;
46835;SDS011;32573;51.290;6.926;2024-02-21T03:37:35;5.47;;;2.20;;
46835;SDS011;32573;51.290;6.926;2024-02-21T03:40:06;7.15;;;2.50;;
46835;SDS011;32573;51.290;6.926;2024-02-21T03:42:35;6.80;;;2.53;;
46835;SDS011;32573;51.290;6.926;2024-02-21T03:45:04;5.10;;;2.10;;
46835;SDS011;32573;51.290;6.926;2024-02-21T03:47:34;6.15;;;2.20;;
46835;SDS011;32573;51.290;6.926;2024-02-21T03:50:03;6.57;;;2.42;;
46835;SDS011;32573;51.290;6.926;2024-02-21T03:52:32;7.00;;;2.67;;
46835;SDS011;32573;51.290;6.926;2024-02-21T03:55:00;7.88;;;3.33;;
46835;SDS011;32573;51.290;6.926;2024-02-21T03:57:29;7.95;;;2.25;;
46835;SDS011;32573;51.290;6.926;2024-02-21T03:59:57;6.82;;;2.50;;
46835;SDS011;32573;51.290;6.926;2024-02-21T04:02:26;6.18;;;2.25;;
46835;SDS011;32573;51.290;6.926;2024-02-21T04:04:56;6.72;;;2.15;;
46835;SDS011;32573;51.290;6.926;2024-02-21T04:07:24;5.07;;;2.00;;
46835;SDS011;32573;51.290;6.926;2024-02-21T04:09:53;5.20;;;2.17;;
46835;SDS011;32573;51.290;6.926;2024-02-21T04:12:21;5.57;;;2.22;;
46835;SDS011;32573;51.290;6.926;2024-02-21T04:14:49;4.57;;;2.20;;
46835;SDS011;32573;51.290;6.926;2024-02-21T04:17:18;5.07;;;2.08;;
46835;SDS011;32573;51.290;6.926;2024-02-21T04:19:46;6.55;;;2.50;;
46835;SDS011;32573;51.290;6.926;2024-02-21T04:22:16;4.60;;;2.17;;
46835;SDS011;32573;51.290;6.926;2024-02-21T04:24:45;5.75;;;2.55;;
46835;SDS011;32573;51.290;6.926;2024-02-21T04:27:13;6.88;;;2.25;;
46835;SDS011;32573;51.290;6.926;2024-02-21T04:29:41;6.28;;;2.13;;
46835;SDS011;32573;51.290;6.926;2024-02-21T04:32:10;5.70;;;2.15;;
46835;SDS011;32573;51.290;6.926;2024-02-21T04:34:40;5.18;;;2.45;;
46835;SDS011;32573;51.290;6.926;2024-02-21T04:37:10;5.80;;;2.00;;
46835;SDS011;32573;51.290;6.926;2024-02-21T04:39:39;5.15;;;2.20;;
46835;SDS011;32573;51.290;6.926;2024-02-21T04:42:07;5.32;;;2.00;;
46835;SDS011;32573;51.290;6.926;2024-02-21T04:44:36;6.20;;;2.28;;
46835;SDS011;32573;51.290;6.926;2024-02-21T04:47:04;4.80;;;2.20;;
46835;SDS011;32573;51.290;6.926;2024-02-21T04:49:33;5.70;;;2.17;;
46835;SDS011;32573;51.290;6.926;2024-02-21T04:52:01;4.40;;;2.20;;
46835;SDS011;32573;51.290;6.926;2024-02-21T04:54:30;5.40;;;2.10;;
46835;SDS011;32573;51.290;6.926;2024-02-21T04:56:59;5.88;;;2.20;;
46835;SDS011;32573;51.290;6.926;2024-02-21T04:59:28;6.13;;;2.40;;
46835;SDS011;32573;51.290;6.926;2024-02-21T05:01:56;7.13;;;2.75;;
46835;SDS011;32573;51.290;6.926;2024-02-21T05:04:25;6.47;;;2.08;;
46835;SDS011;32573;51.290;6.926;2024-02-21T05:06:54;5.85;;;2.28;;
46835;SDS011;32573;51.290;6.926;2024-02-21T05:09:22;5.38;;;2.20;;
46835;SDS011;32573;51.290;6.926;2024-02-21T05:11:51;6.75;;;2.40;;
46835;SDS011;32573;51.290;6.926;2024-02-21T05:14:20;6.90;;;2.28;;
46835;SDS011;32573;51.290;6.926;2024-02-21T05:16:49;3.78;;;1.90;;
46835;SDS011;32573;51.290;6.926;2024-02-21T05:19:17;4.30;;;1.63;;
46835;SDS011;32573;51.290;6.926;2024-02-21T05:21:46;4.57;;;2.10;;
46835;SDS011;32573;51.290;6.926;2024-02-21T05:24:14;5.35;;;2.08;;
46835;SDS011;32573;51.290;6.926;2024-02-21T05:26:43;4.28;;;1.63;;
46835;SDS011;32573;51.290;6.926;2024-02-21T05:29:11;4.55;;;1.90;;
46835;SDS011;32573;51.290;6.926;2024-02-21T05:31:55;5.05;;;1.77;;
46835;SDS011;32573;51.290;6.926;2024-02-21T05:36:53;4.07;;;2.00;;
46835;SDS011;32573;51.290;6.926;2024-02-21T05:39:21;4.85;;;1.80;;
46835;SDS011;32573;51.290;6.926;2024-02-21T05:41:50;5.00;;;1.90;;
46835;SDS011;32573;51.290;6.926;2024-02-21T05:44:19;5.70;;;2.00;;
46835;SDS011;32573;51.290;6.926;2024-02-21T05:46:50;4.63;;;1.60;;
46835;SDS011;32573;51.290;6.926;2024-02-21T05:49:19;3.90;;;1.67;;
46835;SDS011;32573;51.290;6.926;2024-02-21T05:51:47;5.60;;;2.03;;
46835;SDS011;32573;51.290;6.926;2024-02-21T05:54:16;4.28;;;1.88;;
46835;SDS011;32573;51.290;6.926;2024-02-21T05:56:45;6.57;;;1.80;;
46835;SDS011;32573;51.290;6.926;2024-02-21T05:59:14;4.63;;;1.90;;
46835;SDS011;32573;51.290;6.926;2024-02-21T06:01:42;4.05;;;1.80;;
46835;SDS011;32573;51.290;6.926;2024-02-21T06:04:12;4.88;;;1.73;;
46835;SDS011;32573;51.290;6.926;2024-02-21T06:06:41;4.93;;;1.80;;
46835;SDS011;32573;51.290;6.926;2024-02-21T06:09:09;5.63;;;2.17;;
46835;SDS011;32573;51.290;6.926;2024-02-21T06:11:38;4.70;;;2.00;;
46835;SDS011;32573;51.290;6.926;2024-02-21T06:14:08;3.53;;;1.73;;
46835;SDS011;32573;51.290;6.926;2024-02-21T06:16:36;4.57;;;1.67;;
46835;SDS011;32573;51.290;6.926;2024-02-21T06:19:05;4.97;;;1.80;;
46835;SDS011;32573;51.290;6.926;2024-02-21T06:21:38;5.28;;;1.90;;
46835;SDS011;32573;51.290;6.926;2024-02-21T06:24:06;4.20;;;1.88;;
46835;SDS011;32573;51.290;6.926;2024-02-21T06:26:35;4.30;;;1.73;;
46835;SDS011;32573;51.290;6.926;2024-02-21T06:29:03;4.55;;;1.60;;
46835;SDS011;32573;51.290;6.926;2024-02-21T06:31:32;3.28;;;1.42;;
46835;SDS011;32573;51.290;6.926;2024-02-21T06:34:00;5.15;;;1.70;;
46835;SDS011;32573;51.290;6.926;2024-02-21T06:36:29;3.63;;;1.73;;
46835;SDS011;32573;51.290;6.926;2024-02-21T06:38:59;4.35;;;1.65;;
46835;SDS011;32573;51.290;6.926;2024-02-21T06:41:28;6.03;;;1.90;;
46835;SDS011;32573;51.290;6.926;2024-02-21T06:43:57;6.25;;;1.73;;
46835;SDS011;32573;51.290;6.926;2024-02-21T06:46:29;3.55;;;1.70;;
46835;SDS011;32573;51.290;6.926;2024-02-21T06:49:01;6.13;;;2.17;;
46835;SDS011;32573;51.290;6.926;2024-02-21T06:51:31;3.45;;;1.70;;
46835;SDS011;32573;51.290;6.926;2024-02-21T06:54:01;4.57;;;1.77;;
46835;SDS011;32573;51.290;6.926;2024-02-21T06:56:30;4.30;;;1.80;;
46835;SDS011;32573;51.290;6.926;2024-02-21T07:01:44;2.95;;;1.58;;
46835;SDS011;32573;51.290;6.926;2024-02-21T07:04:14;5.00;;;1.80;;
46835;SDS011;32573;51.290;6.926;2024-02-21T07:06:46;3.63;;;1.52;;
46835;SDS011;32573;51.290;6.926;2024-02-21T07:09:16;4.43;;;1.60;;
46835;SDS011;32573;51.290;6.926;2024-02-21T07:11:45;4.03;;;1.50;;
46835;SDS011;32573;51.290;6.926;2024-02-21T07:14:13;3.88;;;1.48;;
46835;SDS011;32573;51.290;6.926;2024-02-21T07:16:42;3.83;;;1.80;;
46835;SDS011;32573;51.290;6.926;2024-02-21T07:19:11;4.38;;;1.60;;
46835;SDS011;32573;51.290;6.926;2024-02-21T07:21:40;3.70;;;1.42;;
46835;SDS011;32573;51.290;6.926;2024-02-21T07:24:09;4.07;;;1.70;;
46835;SDS011;32573;51.290;6.926;2024-02-21T07:26:40;4.20;;;1.67;;
46835;SDS011;32573;51.290;6.926;2024-02-21T07:29:09;4.82;;;1.80;;
46835;SDS011;32573;51.290;6.926;2024-02-21T07:31:41;4.28;;;1.80;;
46835;SDS011;32573;51.290;6.926;2024-02-21T07:34:10;4.75;;;1.70;;
46835;SDS011;32573;51.290;6.926;2024-02-21T07:36:41;4.35;;;1.70;;
46835;SDS011;32573;51.290;6.926;2024-02-21T07:39:12;5.10;;;1.52;;
46835;SDS011;32573;51.290;6.926;2024-02-21T07:41:41;3.65;;;1.63;;
46835;SDS011;32573;51.290;6.926;2024-02-21T07:44:11;4.60;;;1.98;;
46835;SDS011;32573;51.290;6.926;2024-02-21T07:46:40;4.82;;;1.60;;
46835;SDS011;32573;51.290;6.926;2024-02-21T07:49:08;3.50;;;1.58;;
46835;SDS011;32573;51.290;6.926;2024-02-21T07:51:36;3.83;;;1.40;;
46835;SDS011;32573;51.290;6.926;2024-02-21T07:54:05;3.75;;;1.65;;
46835;SDS011;32573;51.290;6.926;2024-02-21T07:56:37;3.85;;;1.60;;
46835;SDS011;32573;51.290;6.926;2024-02-21T07:59:07;4.70;;;1.90;;
46835;SDS011;32573;51.290;6.926;2024-02-21T08:01:36;4.22;;;1.80;;
46835;SDS011;32573;51.290;6.926;2024-02-21T08:04:05;3.00;;;1.30;;
46835;SDS011;32573;51.290;6.926;2024-02-21T08:06:36;5.25;;;2.20;;
46835;SDS011;32573;51.290;6.926;2024-02-21T08:09:12;5.82;;;1.80;;
46835;SDS011;32573;51.290;6.926;2024-02-21T08:11:40;5.25;;;1.70;;
46835;SDS011;32573;51.290;6.926;2024-02-21T08:14:10;7.10;;;2.10;;
46835;SDS011;32573;51.290;6.926;2024-02-21T08:16:38;4.40;;;1.70;;
46835;SDS011;32573;51.290;6.926;2024-02-21T08:19:07;4.50;;;1.60;;
46835;SDS011;32573;51.290;6.926;2024-02-21T08:21:35;3.60;;;1.52;;
46835;SDS011;32573;51.290;6.926;2024-02-21T08:24:03;5.13;;;2.00;;
46835;SDS011;32573;51.290;6.926;2024-02-21T08:26:32;5.78;;;2.08;;
46835;SDS011;32573;51.290;6.926;2024-02-21T08:29:00;5.10;;;1.73;;
46835;SDS011;32573;51.290;6.926;2024-02-21T08:31:30;4.72;;;1.70;;
46835;SDS011;32573;51.290;6.926;2024-02-21T08:33:59;5.25;;;1.60;;
46835;SDS011;32573;51.290;6.926;2024-02-21T08:36:29;4.53;;;1.50;;
46835;SDS011;32573;51.290;6.926;2024-02-21T08:38:59;4.68;;;1.50;;
46835;SDS011;32573;51.290;6.926;2024-02-21T08:41:30;3.75;;;1.50;;
46835;SDS011;32573;51.290;6.926;2024-02-21T08:44:18;4.82;;;1.40;;
46835;SDS011;32573;51.290;6.926;2024-02-21T08:46:47;4.25;;;1.67;;
46835;SDS011;32573;51.290;6.926;2024-02-21T08:49:16;4.47;;;1.40;;
46835;SDS011;32573;51.290;6.926;2024-02-21T08:51:44;4.35;;;1.55;;
46835;SDS011;32573;51.290;6.926;2024-02-21T08:54:13;4.43;;;1.60;;
46835;SDS011;32573;51.290;6.926;2024-02-21T08:56:41;4.55;;;1.65;;
46835;SDS011;32573;51.290;6.926;2024-02-21T08:59:10;4.78;;;1.60;;
46835;SDS011;32573;51.290;6.926;2024-02-21T09:01:38;6.18;;;1.85;;
46835;SDS011;32573;51.290;6.926;2024-02-21T09:04:08;4.85;;;1.65;;
46835;SDS011;32573;51.290;6.926;2024-02-21T09:06:36;5.32;;;2.00;;
46835;SDS011;32573;51.290;6.926;2024-02-21T09:09:08;5.55;;;1.90;;
46835;SDS011;32573;51.290;6.926;2024-02-21T09:11:37;5.32;;;2.00;;
46835;SDS011;32573;51.290;6.926;2024-02-21T09:14:06;4.60;;;1.88;;
46835;SDS011;32573;51.290;6.926;2024-02-21T09:16:35;4.20;;;1.80;;
46835;SDS011;32573;51.290;6.926;2024-02-21T09:19:03;6.22;;;2.15;;
46835;SDS011;32573;51.290;6.926;2024-02-21T09:21:33;5.20;;;1.98;;
46835;SDS011;32573;51.290;6.926;2024-02-21T09:24:01;5.50;;;1.77;;
46835;SDS011;32573;51.290;6.926;2024-02-21T09:26:30;5.43;;;1.90;;
46835;SDS011;32573;51.290;6.926;2024-02-21T09:28:58;5.20;;;1.50;;
46835;SDS011;32573;51.290;6.926;2024-02-21T09:31:27;5.43;;;1.95;;
46835;SDS011;32573;51.290;6.926;2024-02-21T09:33:57;5.10;;;1.80;;
46835;SDS011;32573;51.290;6.926;2024-02-21T09:36:26;5.07;;;1.70;;
46835;SDS011;32573;51.290;6.926;2024-02-21T09:38:55;4.25;;;1.88;;
46835;SDS011;32573;51.290;6.926;2024-02-21T09:41:25;5.78;;;2.00;;
46835;SDS011;32573;51.290;6.926;2024-02-21T09:43:54;6.40;;;1.95;;
46835;SDS011;32573;51.290;6.926;2024-02-21T09:46:24;6.55;;;2.10;;
46835;SDS011;32573;51.290;6.926;2024-02-21T09:49:12;5.78;;;1.83;;
46835;SDS011;32573;51.290;6.926;2024-02-21T09:51:49;4.38;;;1.80;;
46835;SDS011;32573;51.290;6.926;2024-02-21T09:54:23;4.38;;;1.85;;
46835;SDS011;32573;51.290;6.926;2024-02-21T09:56:51;5.80;;;2.17;;
46835;SDS011;32573;51.290;6.926;2024-02-21T09:59:19;5.28;;;1.90;;
46835;SDS011;32573;51.290;6.926;2024-02-21T10:01:49;4.32;;;1.50;;
46835;SDS011;32573;51.290;6.926;2024-02-21T10:04:18;3.92;;;1.55;;
46835;SDS011;32573;51.290;6.926;2024-02-21T10:06:47;3.28;;;1.50;;
46835;SDS011;32573;51.290;6.926;2024-02-21T10:09:23;5.78;;;1.88;;
46835;SDS011;32573;51.290;6.926;2024-02-21T10:11:55;5.15;;;1.77;;
46835;SDS011;32573;51.290;6.926;2024-02-21T10:14:24;5.50;;;2.20;;
46835;SDS011;32573;51.290;6.926;2024-02-21T10:16:56;3.97;;;1.70;;
46835;SDS011;32573;51.290;6.926;2024-02-21T10:19:25;5.07;;;1.80;;
46835;SDS011;32573;51.290;6.926;2024-02-21T10:22:01;4.10;;;1.50;;
46835;SDS011;32573;51.290;6.926;2024-02-21T10:24:32;3.63;;;1.42;;
46835;SDS011;32573;51.290;6.926;2024-02-21T10:27:04;4.57;;;1.80;;
46835;SDS011;32573;51.290;6.926;2024-02-21T10:29:35;5.00;;;1.60;;
46835;SDS011;32573;51.290;6.926;2024-02-21T10:32:04;4.18;;;1.65;;
46835;SDS011;32573;51.290;6.926;2024-02-21T10:34:34;4.40;;;1.70;;
46835;SDS011;32573;51.290;6.926;2024-02-21T10:37:03;4.05;;;1.80;;
46835;SDS011;32573;51.290;6.926;2024-02-21T10:39:35;5.50;;;1.80;;
46835;SDS011;32573;51.290;6.926;2024-02-21T10:42:05;4.05;;;1.70;;
46835;SDS011;32573;51.290;6.926;2024-02-21T10:44:36;4.10;;;2.00;;
46835;SDS011;32573;51.290;6.926;2024-02-21T10:47:07;3.45;;;1.50;;
46835;SDS011;32573;51.290;6.926;2024-02-21T10:49:36;3.78;;;1.75;;
46835;SDS011;32573;51.290;6.926;2024-02-21T10:52:12;3.60;;;1.75;;
46835;SDS011;32573;51.290;6.926;2024-02-21T10:54:45;4.38;;;1.60;;
46835;SDS011;32573;51.290;6.926;2024-02-21T10:57:19;3.78;;;1.70;;
46835;SDS011;32573;51.290;6.926;2024-02-21T10:59:49;3.47;;;1.60;;
46835;SDS011;32573;51.290;6.926;2024-02-21T11:02:18;3.30;;;1.60;;
46835;SDS011;32573;51.290;6.926;2024-02-21T11:04:47;3.35;;;1.50;;
46835;SDS011;32573;51.290;6.926;2024-02-21T11:07:18;3.70;;;1.70;;
46835;SDS011;32573;51.290;6.926;2024-02-21T11:09:52;3.78;;;1.63;;
46835;SDS011;32573;51.290;6.926;2024-02-21T11:12:22;4.47;;;1.70;;
46835;SDS011;32573;51.290;6.926;2024-02-21T11:14:52;5.05;;;1.80;;
46835;SDS011;32573;51.290;6.926;2024-02-21T11:17:20;3.92;;;1.52;;
46835;SDS011;32573;51.290;6.926;2024-02-21T11:19:52;3.30;;;1.52;;
46835;SDS011;32573;51.290;6.926;2024-02-21T11:22:21;3.85;;;1.98;;
46835;SDS011;32573;51.290;6.926;2024-02-21T11:24:53;3.08;;;1.50;;
46835;SDS011;32573;51.290;6.926;2024-02-21T11:27:22;3.22;;;1.40;;
46835;SDS011;32573;51.290;6.926;2024-02-21T11:29:54;3.35;;;1.45;;
46835;SDS011;32573;51.290;6.926;2024-02-21T11:32:23;4.05;;;1.80;;
46835;SDS011;32573;51.290;6.926;2024-02-21T11:34:54;3.75;;;1.33;;
46835;SDS011;32573;51.290;6.926;2024-02-21T11:37:24;3.58;;;1.40;;
46835;SDS011;32573;51.290;6.926;2024-02-21T11:39:55;3.92;;;1.38;;
46835;SDS011;32573;51.290;6.926;2024-02-21T11:42:24;3.70;;;1.38;;
46835;SDS011;32573;51.290;6.926;2024-02-21T11:44:53;5.35;;;1.98;;
46835;SDS011;32573;51.290;6.926;2024-02-21T11:47:24;3.80;;;1.30;;
46835;SDS011;32573;51.290;6.926;2024-02-21T11:49:52;3.70;;;1.50;;
46835;SDS011;32573;51.290;6.926;2024-02-21T11:52:22;4.30;;;1.52;;
46835;SDS011;32573;51.290;6.926;2024-02-21T11:54:53;4.10;;;1.40;;
46835;SDS011;32573;51.290;6.926;2024-02-21T11:57:25;2.70;;;1.38;;
46835;SDS011;32573;51.290;6.926;2024-02-21T11:59:54;4.35;;;1.52;;
46835;SDS011;32573;51.290;6.926;2024-02-21T12:02:26;3.75;;;1.60;;
46835;SDS011;32573;51.290;6.926;2024-02-21T12:04:55;3.35;;;1.55;;
46835;SDS011;32573;51.290;6.926;2024-02-21T12:07:24;3.97;;;1.33;;
46835;SDS011;32573;51.290;6.926;2024-02-21T12:09:58;4.32;;;1.50;;
46835;SDS011;32573;51.290;6.926;2024-02-21T12:12:28;3.65;;;1.55;;
46835;SDS011;32573;51.290;6.926;2024-02-21T12:14:56;3.45;;;1.52;;
46835;SDS011;32573;51.290;6.926;2024-02-21T12:17:25;5.00;;;1.60;;
46835;SDS011;32573;51.290;6.926;2024-02-21T12:19:53;4.78;;;1.60;;
46835;SDS011;32573;51.290;6.926;2024-02-21T12:22:22;4.28;;;1.55;;
46835;SDS011;32573;51.290;6.926;2024-02-21T12:24:50;4.30;;;1.80;;
46835;SDS011;32573;51.290;6.926;2024-02-21T12:27:18;4.25;;;1.60;;
46835;SDS011;32573;51.290;6.926;2024-02-21T12:29:48;3.30;;;1.30;;
46835;SDS011;32573;51.290;6.926;2024-02-21T12:32:16;3.95;;;1.42;;
46835;SDS011;32573;51.290;6.926;2024-02-21T12:34:45;4.72;;;1.40;;
46835;SDS011;32573;51.290;6.926;2024-02-21T12:37:21;4.93;;;1.67;;
46835;SDS011;32573;51.290;6.926;2024-02-21T12:39:50;4.60;;;1.60;;
46835;SDS011;32573;51.290;6.926;2024-02-21T12:42:18;4.82;;;1.55;;
46835;SDS011;32573;51.290;6.926;2024-02-21T12:44:48;3.28;;;1.20;;
46835;SDS011;32573;51.290;6.926;2024-02-21T12:47:16;2.80;;;1.13;;
46835;SDS011;32573;51.290;6.926;2024-02-21T12:49:46;4.55;;;1.42;;
46835;SDS011;32573;51.290;6.926;2024-02-21T12:52:15;3.40;;;1.40;;
46835;SDS011;32573;51.290;6.926;2024-02-21T12:54:43;3.88;;;1.35;;
46835;SDS011;32573;51.290;6.926;2024-02-21T12:57:11;3.40;;;1.30;;
46835;SDS011;32573;51.290;6.926;2024-02-21T12:59:40;3.13;;;1.20;;
46835;SDS011;32573;51.290;6.926;2024-02-21T13:02:09;3.95;;;1.30;;
46835;SDS011;32573;51.290;6.926;2024-02-21T13:04:38;4.22;;;1.50;;
46835;SDS011;32573;51.290;6.926;2024-02-21T13:07:08;3.03;;;1.30;;
46835;SDS011;32573;51.290;6.926;2024-02-21T13:09:36;3.78;;;1.20;;
46835;SDS011;32573;51.290;6.926;2024-02-21T13:12:05;3.83;;;1.27;;
46835;SDS011;32573;51.290;6.926;2024-02-21T13:14:34;3.10;;;1.33;;
46835;SDS011;32573;51.290;6.926;2024-02-21T13:17:05;5.25;;;1.40;;
46835;SDS011;32573;51.290;6.926;2024-02-21T13:19:35;2.50;;;1.10;;
46835;SDS011;32573;51.290;6.926;2024-02-21T13:22:04;2.83;;;1.25;;
46835;SDS011;32573;51.290;6.926;2024-02-21T13:24:32;5.40;;;1.90;;
46835;SDS011;32573;51.290;6.926;2024-02-21T13:27:00;3.85;;;1.35;;
46835;SDS011;32573;51.290;6.926;2024-02-21T13:29:30;3.75;;;1.30;;
46835;SDS011;32573;51.290;6.926;2024-02-21T13:31:58;4.07;;;1.60;;
46835;SDS011;32573;51.290;6.926;2024-02-21T13:34:26;3.92;;;1.40;;
46835;SDS011;32573;51.290;6.926;2024-02-21T13:36:57;3.90;;;1.40;;
46835;SDS011;32573;51.290;6.926;2024-02-21T13:39:26;3.40;;;1.23;;
46835;SDS011;32573;51.290;6.926;2024-02-21T13:41:54;6.18;;;1.80;;
46835;SDS011;32573;51.290;6.926;2024-02-21T13:44:23;3.60;;;1.70;;
46835;SDS011;32573;51.290;6.926;2024-02-21T13:46:52;4.03;;;1.42;;
46835;SDS011;32573;51.290;6.926;2024-02-21T13:49:20;3.17;;;1.27;;
46835;SDS011;32573;51.290;6.926;2024-02-21T13:51:49;2.90;;;1.30;;
46835;SDS011;32573;51.290;6.926;2024-02-21T13:54:18;3.22;;;1.35;;
46835;SDS011;32573;51.290;6.926;2024-02-21T13:56:48;2.75;;;1.33;;
46835;SDS011;32573;51.290;6.926;2024-02-21T13:59:16;4.40;;;1.77;;
46835;SDS011;32573;51.290;6.926;2024-02-21T14:01:45;3.22;;;1.33;;
46835;SDS011;32573;51.290;6.926;2024-02-21T14:04:13;3.92;;;1.50;;
46835;SDS011;32573;51.290;6.926;2024-02-21T14:06:41;2.30;;;1.20;;
46835;SDS011;32573;51.290;6.926;2024-02-21T14:09:11;3.17;;;1.25;;
46835;SDS011;32573;51.290;6.926;2024-02-21T14:11:40;4.35;;;1.50;;
46835;SDS011;32573;51.290;6.926;2024-02-21T14:14:09;3.95;;;1.25;;
46835;SDS011;32573;51.290;6.926;2024-02-21T14:16:37;2.78;;;1.25;;
46835;SDS011;32573;51.290;6.926;2024-02-21T14:19:06;3.28;;;1.30;;
46835;SDS011;32573;51.290;6.926;2024-02-21T14:21:35;3.50;;;1.40;;
46835;SDS011;32573;51.290;6.926;2024-02-21T14:24:04;3.38;;;1.20;;
46835;SDS011;32573;51.290;6.926;2024-02-21T14:26:33;2.90;;;1.20;;
46835;SDS011;32573;51.290;6.926;2024-02-21T14:29:04;3.03;;;1.25;;
46835;SDS011;32573;51.290;6.926;2024-02-21T14:31:32;6.18;;;1.40;;
46835;SDS011;32573;51.290;6.926;2024-02-21T14:34:00;3.55;;;1.50;;
46835;SDS011;32573;51.290;6.926;2024-02-21T14:36:30;4.68;;;1.40;;
46835;SDS011;32573;51.290;6.926;2024-02-21T14:39:00;4.00;;;1.33;;
46835;SDS011;32573;51.290;6.926;2024-02-21T14:41:28;3.25;;;1.25;;
46835;SDS011;32573;51.290;6.926;2024-02-21T14:43:56;4.00;;;1.30;;
46835;SDS011;32573;51.290;6.926;2024-02-21T14:46:31;3.33;;;1.30;;
46835;SDS011;32573;51.290;6.926;2024-02-21T14:49:00;3.08;;;1.27;;
46835;SDS011;32573;51.290;6.926;2024-02-21T14:51:29;2.95;;;1.30;;
46835;SDS011;32573;51.290;6.926;2024-02-21T14:53:58;2.88;;;1.40;;
46835;SDS011;32573;51.290;6.926;2024-02-21T14:56:26;3.67;;;1.30;;
46835;SDS011;32573;51.290;6.926;2024-02-21T14:58:55;3.83;;;1.50;;
46835;SDS011;32573;51.290;6.926;2024-02-21T15:01:36;3.70;;;1.20;;
46835;SDS011;32573;51.290;6.926;2024-02-21T15:04:06;3.28;;;1.58;;
46835;SDS011;32573;51.290;6.926;2024-02-21T15:06:35;3.20;;;1.40;;